Time;durP1;ratioP1;P1;durP2;ratioP2;P2;SDS_P1;SDS_P2;PMS_P1;PMS_P2;Temp;Humidity;BMP_temperature;BMP_pressure;BME280_temperature;BME280_humidity;BME280_pressure;Samples;Min_cycle;Max_cycle;Signal;HPM_P1;HPM_P2
2023/04/04 00:05:11;;;;;;;27.10;13.20;;;;;;;11.32;100.00;99999.53;31450561;28;20040;-80
2023/04/04 00:20:13;;;;;;;33.20;13.77;;;;;;;11.25;100.00;99993.09;31484307;28;20049;-78
2023/04/04 00:35:15;;;;;;;31.83;13.43;;;;;;;11.31;100.00;99996.06;31442753;28;20686;-79
2023/04/04 00:50:17;;;;;;;29.13;13.20;;;;;;;11.02;100.00;100004.13;31414161;28;20071;-79
2023/04/04 01:05:19;;;;;;;34.27;15.63;;;;;;;10.66;100.00;99998.69;31389597;28;20056;-77
2023/04/04 01:20:25;;;;;;;36.87;15.80;;;;;;;10.42;100.00;100003.47;31366863;28;20057;-78
2023/04/04 01:35:37;;;;;;;37.07;17.20;;;;;;;10.30;100.00;100008.78;31365050;28;20520;-79
2023/04/04 01:50:40;;;;;;;37.00;17.10;;;;;;;10.31;100.00;100013.78;31358927;28;20041;-78
2023/04/04 02:05:42;;;;;;;39.33;16.57;;;;;;;10.32;100.00;100030.81;31377189;28;20053;-79
2023/04/04 02:20:44;;;;;;;37.13;16.90;;;;;;;10.28;100.00;100025.47;31360002;28;20049;-79
2023/04/04 02:35:46;;;;;;;45.80;17.53;;;;;;;10.30;100.00;100017.69;31393729;28;20056;-78
2023/04/04 02:50:48;;;;;;;40.97;17.33;;;;;;;10.15;100.00;100017.16;31368463;28;20053;-78
2023/04/04 03:05:50;;;;;;;49.70;19.47;;;;;;;10.10;100.00;100033.16;31356907;28;20087;-77
2023/04/04 03:20:53;;;;;;;49.10;18.77;;;;;;;10.19;100.00;100042.28;31350653;28;20050;-78
2023/04/04 03:35:55;;;;;;;45.93;19.13;;;;;;;10.16;100.00;100056.66;31345420;28;20091;-77
2023/04/04 03:50:57;;;;;;;53.03;25.93;;;;;;;10.27;100.00;100070.06;31384173;28;20049;-78
2023/04/04 04:05:59;;;;;;;52.70;21.60;;;;;;;10.32;100.00;100096.72;31371320;28;20072;-78
2023/04/04 04:21:02;;;;;;;45.63;18.77;;;;;;;10.47;100.00;100108.81;31335334;28;20049;-78
2023/04/04 04:36:05;;;;;;;49.73;20.40;;;;;;;10.85;100.00;100111.19;31366365;28;20398;-80
2023/04/04 04:51:08;;;;;;;53.50;19.47;;;;;;;11.16;100.00;100119.81;31397480;28;20162;-79
2023/04/04 05:06:09;;;;;;;50.07;20.30;;;;;;;11.76;100.00;100118.50;31356626;28;20049;-81
2023/04/04 05:21:12;;;;;;;45.97;20.50;;;;;;;12.52;100.00;100134.41;31400041;28;20045;-80
2023/04/04 05:36:14;;;;;;;46.60;20.97;;;;;;;13.26;100.00;100151.38;31377700;28;20066;-80
2023/04/04 05:51:17;;;;;;;38.30;18.67;;;;;;;14.15;100.00;100156.03;31383261;28;20037;-79
2023/04/04 06:06:19;;;;;;;39.20;18.27;;;;;;;15.00;100.00;100164.75;31368707;28;20062;-85
2023/04/04 06:21:21;;;;;;;37.67;18.37;;;;;;;15.77;100.00;100154.00;31396896;28;20397;-87
2023/04/04 06:36:23;;;;;;;32.43;14.73;;;;;;;16.83;100.00;100164.44;31413188;28;20053;-87
2023/04/04 06:51:26;;;;;;;28.83;12.90;;;;;;;17.45;100.00;100169.47;31404054;28;20116;-83
2023/04/04 07:06:28;;;;;;;22.73;12.03;;;;;;;16.46;100.00;100171.91;31386024;28;20060;-82
2023/04/04 07:21:31;;;;;;;20.50;11.93;;;;;;;18.05;100.00;100155.59;31400344;28;20079;-87
2023/04/04 07:36:33;;;;;;;18.83;10.27;;;;;;;18.80;100.00;100157.28;31402894;28;20057;-84
2023/04/04 07:51:35;;;;;;;14.03;7.37;;;;;;;18.18;100.00;100147.13;31405769;28;20501;-77
2023/04/04 08:06:38;;;;;;;11.43;6.77;;;;;;;17.84;100.00;100140.16;31396423;28;20044;-81
2023/04/04 08:21:40;;;;;;;5.53;3.50;;;;;;;17.39;100.00;100147.38;31417816;28;20049;-85
2023/04/04 08:36:42;;;;;;;12.43;6.70;;;;;;;18.90;100.00;100117.44;31396371;28;20083;-82
2023/04/04 08:51:45;;;;;;;9.47;5.43;;;;;;;19.71;100.00;100120.47;31377968;28;20055;-83
2023/04/04 09:06:47;;;;;;;13.13;6.90;;;;;;;18.85;100.00;100098.88;31425105;28;20051;-80
2023/04/04 09:21:49;;;;;;;15.80;8.17;;;;;;;18.87;100.00;100090.91;31374454;28;20041;-82
2023/04/04 09:36:52;;;;;;;24.70;12.60;;;;;;;20.03;100.00;100100.09;31375184;28;20052;-79
2023/04/04 09:51:54;;;;;;;16.13;8.95;;;;;;;20.27;100.00;100096.34;31365833;28;20155;-79
2023/04/04 10:06:58;;;;;;;6.97;4.28;;;;;;;20.17;100.00;100092.97;31338382;28;20088;-78
2023/04/04 10:22:01;;;;;;;7.63;4.43;;;;;;;19.83;100.00;100080.06;31354566;28;20057;-73
2023/04/04 10:37:07;;;;;;;7.63;4.78;;;;;;;20.40;100.00;100077.44;31335724;28;20093;-74
2023/04/04 10:52:14;;;;;;;7.15;4.15;;;;;;;21.20;100.00;100081.16;31323754;28;20097;-73
2023/04/04 11:07:16;;;;;;;;;;;;;;;21.37;100.00;100068.22;31322219;28;20780;-73
2023/04/04 11:22:22;;;;;;;4.78;3.03;;;;;;;20.87;100.00;100050.53;31319344;28;19920;-73
2023/04/04 11:37:24;;;;;;;5.35;3.90;;;;;;;21.78;100.00;100029.22;31345639;28;20103;-74
2023/04/04 11:52:33;;;;;;;4.68;3.00;;;;;;;20.51;100.00;100038.22;31328300;28;20049;-74
2023/04/04 12:07:36;;;;;;;4.50;2.83;;;;;;;19.42;100.00;100031.19;31366253;28;20122;-77
2023/04/04 12:22:39;;;;;;;5.10;3.38;;;;;;;19.02;100.00;100026.38;31337397;28;20077;-75
2023/04/04 12:38:01;;;;;;;5.95;3.80;;;;;;;18.74;100.00;99995.72;31380796;28;20716;-81
2023/04/04 12:53:04;;;;;;;8.48;4.07;;;;;;;18.86;100.00;99962.91;31343081;28;20056;-77
2023/04/04 13:08:26;;;;;;;9.87;5.03;;;;;;;18.62;100.00;99958.31;31369853;28;20064;-78
2023/04/04 13:23:28;;;;;;;10.90;5.68;;;;;;;18.63;100.00;99984.56;31383975;28;20094;-79
2023/04/04 13:38:31;;;;;;;9.60;4.93;;;;;;;18.12;100.00;99971.19;31370278;28;20103;-79
2023/04/04 13:53:35;;;;;;;7.97;4.20;;;;;;;18.17;100.00;99956.78;31371249;28;20102;-78
2023/04/04 14:08:37;;;;;;;5.43;3.30;;;;;;;18.04;100.00;99957.06;31382363;28;20055;-81
2023/04/04 14:23:39;;;;;;;6.67;3.73;;;;;;;17.76;100.00;99958.53;31352436;28;20036;-80
2023/04/04 14:38:41;;;;;;;8.63;4.67;;;;;;;17.70;100.00;99979.66;31356834;28;20148;-80
2023/04/04 14:53:45;;;;;;;8.90;5.47;;;;;;;17.71;100.00;99968.19;31319937;28;20072;-82
2023/04/04 15:08:48;;;;;;;7.77;5.20;;;;;;;17.69;100.00;99953.44;31325566;28;20068;-78
2023/04/04 15:23:50;;;;;;;8.50;4.67;;;;;;;17.25;100.00;99937.53;31337704;28;20140;-83
2023/04/04 15:38:52;;;;;;;8.33;5.00;;;;;;;17.03;100.00;99943.31;31347308;28;20414;-81
2023/04/04 15:53:55;;;;;;;10.90;6.40;;;;;;;16.72;100.00;99944.88;31388960;28;20041;-84
2023/04/04 16:08:57;;;;;;;10.73;7.10;;;;;;;16.40;100.00;99930.66;31344614;28;20049;-86
2023/04/04 16:23:59;;;;;;;11.63;7.33;;;;;;;16.16;100.00;99910.66;31343982;28;20048;-74
2023/04/04 16:39:01;;;;;;;18.13;7.60;;;;;;;16.02;100.00;99893.66;31375171;28;20148;-74
2023/04/04 16:54:03;;;;;;;19.03;10.03;;;;;;;15.71;100.00;99882.16;31354699;28;20045;-74
2023/04/04 17:09:06;;;;;;;79.63;29.30;;;;;;;15.77;100.00;99891.28;31359185;28;20480;-78
2023/04/04 17:24:08;;;;;;;28.07;10.70;;;;;;;15.77;100.00;99882.31;31362532;28;20091;-74
2023/04/04 17:39:10;;;;;;;36.20;15.83;;;;;;;15.67;100.00;99887.00;31352620;28;20812;-75
2023/04/04 17:54:12;;;;;;;17.33;9.60;;;;;;;15.57;100.00;99878.06;31369209;28;20072;-76
2023/04/04 18:09:16;;;;;;;16.23;9.17;;;;;;;15.54;100.00;99848.88;31340066;28;20128;-74
2023/04/04 18:24:18;;;;;;;13.57;7.63;;;;;;;15.25;100.00;99835.66;31352009;28;20136;-75
2023/04/04 18:39:20;;;;;;;14.93;8.40;;;;;;;15.25;100.00;99832.16;31316774;28;20111;-75
2023/04/04 18:54:23;;;;;;;13.77;7.80;;;;;;;15.06;100.00;99795.88;31320053;28;20044;-75
2023/04/04 19:09:26;;;;;;;15.13;8.07;;;;;;;14.84;100.00;99795.25;31340801;28;20076;-73
2023/04/04 19:24:42;;;;;;;11.20;6.63;;;;;;;14.96;100.00;99758.81;31355881;28;20044;-74
2023/04/04 19:39:52;;;;;;;16.50;9.37;;;;;;;14.91;100.00;99756.69;31345424;28;20396;-75
2023/04/04 19:54:54;;;;;;;12.53;6.97;;;;;;;14.90;100.00;99744.22;31347144;28;20068;-76
2023/04/04 20:09:56;;;;;;;10.40;5.40;;;;;;;14.93;100.00;99733.16;31378716;28;20229;-77
2023/04/04 20:25:10;;;;;;;8.83;5.37;;;;;;;14.93;100.00;99716.00;31357585;28;20412;-75
2023/04/04 20:40:31;;;;;;;8.87;4.93;;;;;;;14.68;100.00;99706.91;31352899;28;21380;-74
2023/04/04 20:55:34;;;;;;;9.33;5.43;;;;;;;14.75;100.00;99694.16;31365118;28;20118;-74
2023/04/04 21:10:51;;;;;;;8.77;5.63;;;;;;;14.78;100.00;99701.44;31343666;28;20131;-74
2023/04/04 21:25:59;;;;;;;12.20;5.70;;;;;;;14.71;100.00;99672.44;31371269;28;20400;-76
2023/04/04 21:41:12;;;;;;;10.33;5.20;;;;;;;14.53;100.00;99645.91;31377533;28;20060;-75
2023/04/04 21:56:15;;;;;;;10.00;6.20;;;;;;;14.41;100.00;99626.97;31326125;28;20082;-75
2023/04/04 22:11:18;;;;;;;14.57;5.40;;;;;;;14.56;100.00;99606.75;31350441;28;20139;-74
2023/04/04 22:26:27;;;;;;;13.40;6.03;;;;;;;14.41;100.00;99608.56;31353870;28;20143;-75
2023/04/04 22:41:30;;;;;;;9.87;5.70;;;;;;;14.57;100.00;99602.81;31345174;28;20067;-73
2023/04/04 22:56:33;;;;;;;13.77;6.50;;;;;;;14.61;100.00;99592.50;31347305;28;20049;-75
2023/04/04 23:11:38;;;;;;;11.47;5.67;;;;;;;14.70;100.00;99588.22;31335730;28;20048;-75
2023/04/04 23:26:40;;;;;;;15.53;6.50;;;;;;;14.66;100.00;99580.94;31370384;28;20041;-75
2023/04/04 23:41:43;;;;;;;14.13;7.33;;;;;;;14.51;100.00;99571.84;31361148;28;20057;-76
2023/04/04 23:56:51;;;;;;;13.07;7.80;;;;;;;14.45;100.00;99570.19;31365482;28;20056;-76
